ADDS METAR Data INFO
IDs: Format: Raw Decoded Include TAF

Data at: 1129 UTC 17 Jul 2018

KMOX 171115Z AUTO 00000KT 10SM SCT055 SCT085 16/16 A3014 RMK AO2
KMOX 171055Z AUTO 00000KT 10SM SCT055 OVC085 16/16 A3014 RMK AO2
KMOX 171035Z AUTO 00000KT 10SM SCT055 OVC085 16/16 A3013 RMK AO2
KMOX 171015Z AUTO 00000KT 10SM SCT075 BKN085 16/16 A3013 RMK AO2
KMOX 170955Z AUTO 04003KT 10SM SCT055 BKN085 16/16 A3012 RMK AO2
KMOX 170935Z AUTO 00000KT 10SM SCT055 SCT085 16/15 A3012 RMK AO2
KMOX 170915Z AUTO 11003KT 10SM BKN055 16/14 A3011 RMK AO2
KMOX 170855Z AUTO 00000KT 10SM BKN055 17/14 A3012 RMK AO2
KMOX 170835Z AUTO 07004KT 10SM BKN055 17/14 A3011 RMK AO2
KMOX 170815Z AUTO 06004KT 10SM SCT055 SCT090 16/13 A3011 RMK AO2
KMOX 170755Z AUTO 06005KT 10SM SCT049 SCT075 17/13 A3011 RMK AO2
KMOX 170735Z AUTO 07003KT 10SM SCT049 SCT075 17/14 A3010 RMK AO2
KMOX 170715Z AUTO 06004KT 10SM BKN049 BKN075 17/16 A3010 RMK AO2
KMOX 170655Z AUTO 00000KT 10SM BKN047 BKN075 17/16 A3010 RMK AO2
KMOX 170635Z AUTO 00000KT 10SM BKN045 17/16 A3011 RMK AO2
KMOX 170615Z AUTO 16003KT 10SM SCT045 17/14 A3011 RMK AO2 LTG DSNT SW
KMOX 170555Z AUTO 06004KT 10SM CLR 17/14 A3009 RMK AO2
KMOX 170535Z AUTO 05004KT 10SM CLR 17/15 A3008 RMK AO2
KMOX 170515Z AUTO 06005KT 10SM CLR 17/15 A3008 RMK AO2
KMOX 170455Z AUTO 05005KT 10SM SCT095 18/15 A3008 RMK AO2
KMOX 170435Z AUTO 05005KT 10SM SCT095 18/16 A3008 RMK AO2
KMOX 170415Z AUTO 03007KT 10SM SCT095 18/17 A3007 RMK AO2
KMOX 170355Z AUTO 02004KT 10SM CLR 18/17 A3007 RMK AO2
KMOX 170335Z AUTO 03004KT 10SM CLR 18/17 A3006 RMK AO2
KMOX 170315Z AUTO 02005KT 10SM CLR 18/17 A3006 RMK AO2
KMOX 170255Z AUTO 03005KT 10SM CLR 19/18 A3006 RMK AO2
KMOX 170235Z AUTO 04003KT 10SM CLR 19/18 A3005 RMK AO2
KMOX 170215Z AUTO 01004KT 10SM CLR 20/17 A3004 RMK AO2
KMOX 170155Z AUTO 02004KT 10SM CLR 22/17 A3003 RMK AO2
KMOX 170135Z AUTO 03005KT 10SM CLR 23/17 A3003 RMK AO2
KMOX 170115Z AUTO 02006KT 10SM SCT110 24/17 A3002 RMK AO2
KMOX 170055Z AUTO 02006KT 10SM BKN110 24/17 A3002 RMK AO2
KMOX 170035Z AUTO 02006KT 10SM SCT110 24/18 A3002 RMK AO2
KMOX 170015Z AUTO 36006KT 10SM CLR 27/18 A3002 RMK AO2
KMOX 162355Z AUTO 35006KT 10SM CLR 27/17 A3003 RMK AO2
KMOX 162335Z AUTO 32006KT 10SM CLR 28/16 A3003 RMK AO2
KMOX 162315Z AUTO 28008KT 10SM CLR 28/14 A3003 RMK AO2
KMOX 162255Z AUTO 29008KT 10SM CLR 28/14 A3003 RMK AO2
KMOX 162235Z AUTO 28006KT 10SM CLR 28/14 A3004 RMK AO2
KMOX 162215Z AUTO 30009KT 10SM CLR 28/14 A3004 RMK AO2
KMOX 162155Z AUTO 30006KT 10SM CLR 28/16 A3004 RMK AO2
KMOX 162135Z AUTO 29006KT 10SM CLR 28/16 A3005 RMK AO2
KMOX 162115Z AUTO 28009KT 10SM CLR 28/17 A3005 RMK AO2
KMOX 162055Z AUTO 29012G16KT 10SM CLR 28/17 A3005 RMK AO2
KMOX 162035Z AUTO 30007KT 10SM CLR 28/17 A3005 RMK AO2
KMOX 162015Z AUTO 30008KT 10SM SCT046 28/17 A3006 RMK AO2
KMOX 161955Z AUTO 32011G14KT 10SM SCT046 27/17 A3006 RMK AO2
KMOX 161935Z AUTO 30008KT 10SM SCT048 27/17 A3006 RMK AO2
KMOX 161915Z AUTO 30009KT 275V335 10SM CLR 27/17 A3006 RMK AO2
KMOX 161855Z AUTO 30006KT 10SM CLR 27/17 A3006 RMK AO2
KMOX 161835Z AUTO 29009KT 265V325 10SM CLR 27/17 A3007 RMK AO2
KMOX 161815Z AUTO 33008KT 10SM CLR 27/16 A3007 RMK AO2
KMOX 161755Z AUTO 32008KT 10SM CLR 27/17 A3007 RMK AO2
KMOX 161735Z AUTO 32007KT 10SM CLR 26/17 A3007 RMK AO2
KMOX 161715Z AUTO 34006KT 10SM CLR 26/17 A3007 RMK AO2
KMOX 161655Z AUTO 31007KT 10SM CLR 26/16 A3007 RMK AO2
KMOX 161635Z AUTO 31007KT 10SM CLR 26/17 A3007 RMK AO2
KMOX 161615Z AUTO 33007KT 10SM CLR 26/17 A3007 RMK AO2
KMOX 161555Z AUTO 32007KT 10SM CLR 26/16 A3007 RMK AO2
KMOX 161535Z AUTO 30005KT 10SM CLR 26/16 A3006 RMK AO2
KMOX 161515Z AUTO 29005KT 10SM CLR 25/16 A3006 RMK AO2
KMOX 161455Z AUTO 31004KT 10SM CLR 24/16 A3006 RMK AO2
KMOX 161435Z AUTO 30004KT 10SM CLR 23/16 A3006 RMK AO2
KMOX 161415Z AUTO 27004KT 10SM CLR 23/16 A30 RMK AO2
KMOX 161355Z AUTO 26005KT 10SM CLR 22/16 A3005 RMK AO2
KMOX 161335Z AUTO 24004KT 10SM CLR 21/16 A3005 RMK AO2
KMOX 161315Z AUTO 00000KT 10SM CLR 20/16 A3005 RMK AO2
KMOX 161255Z AUTO 00000KT 10SM CLR 19/16 A3006 RMK AO2
KMOX 161235Z AUTO 00000KT 10SM CLR 17/16 A3006 RMK AO2
KMOX 161215Z AUTO 00000KT 10SM CLR 16/15 A30 RMK AO2
KMOX 161155Z AUTO 00000KT 10SM CLR 15/14 A3005 RMK AO2
KMOX 161135Z AUTO 00000KT 10SM CLR 14/14 A3005 RMK AO2
KMOX 161115Z AUTO 00000KT 10SM CLR 13/13 A3005 RMK AO2
KMOX 161055Z AUTO 23003KT 10SM CLR 13/13 A3004 RMK AO2
KMOX 161035Z AUTO 26004KT 10SM CLR 13/13 A3005 RMK AO2
KMOX 161015Z AUTO 25004KT 10SM SCT120 14/14 A3005 RMK AO2
KMOX 160955Z AUTO 27004KT 10SM SCT120 13/13 A3004 RMK AO2
KMOX 160935Z AUTO 27003KT 10SM SCT12 14/14 A3004 RMK AO2
KMOX 160915Z AUTO 28005KT 10SM BKN120 14/14 A30120 RMK AO2
KMOX 160855Z AUTO 27004KT 10SM SCT120 14/14 A30 RMK AO2
KMOX 160835Z AUTO 27004KT 10SM CLR 14/14 A3004 RMK AO2
KMOX 160815Z AUTO 29003KT 10SM CLR 14/14 A3004 RMK AO2
KMOX 160755Z AUTO 29004KT 10SM CLR 14/14 A3005 RMK AO2
KMOX 160735Z AUTO 30005KT 10SM CLR 14/14 A3005 RMK AO2
KMOX 160715Z AUTO 30004KT 10SM CLR 15/14 A3005 RMK AO2
KMOX 160655Z AUTO 29005KT 10SM CLR 16/14 A3005 RMK AO2
KMOX 160635Z AUTO 29006KT 10SM CLR 16/14 A3005 RMK AO2
KMOX 160615Z AUTO 29006KT 10SM CLR 16/14 A3005 RMK AO2
KMOX 160555Z AUTO 30006KT 10SM CLR 16/14 A3005 RMK AO2
KMOX 160535Z AUTO 30007KT 10SM CLR 16/15 A3005 RMK AO2
KMOX 160515Z AUTO 30005KT 10SM CLR 16/15 A3005 RMK AO2
KMOX 160455Z AUTO 29004KT 10SM CLR 16/15 A3005 RMK AO2
KMOX 160435Z AUTO 28004KT 10SM CLR 16/16 A3005 RMK AO2
KMOX 160415Z AUTO 26003KT 10SM CLR 16/16 A3005 RMK AO2
KMOX 160355Z AUTO 24004KT 10SM CLR 16/16 A3005 RMK AO2
KMOX 160335Z AUTO 25003KT 10SM CLR 17/16 A3004 RMK AO2
KMOX 160315Z AUTO 24004KT 10SM CLR 17/16 A3004 RMK AO2
KMOX 160255Z AUTO 25004KT 10SM CLR 17/16 A3004 RMK AO2
KMOX 160235Z AUTO 25004KT 10SM CLR 18/16 A3003 RMK AO2
KMOX 160215Z AUTO 26003KT 10SM CLR 18/15 A3003 RMK AO2
KMOX 160155Z AUTO 26003KT 10SM CLR 19/16 A3003 RMK AO2
KMOX 160135Z AUTO 29004KT 10SM CLR 21/16 A3003 RMK AO2
KMOX 160115Z AUTO 29005KT 10SM CLR 22/16 A3003 RMK AO2
KMOX 160055Z AUTO 26004KT 10SM CLR 22/16 A3003 RMK AO2
KMOX 160035Z AUTO 28004KT 10SM CLR 21/16 A3004 RMK AO2
KMOX 160015Z AUTO 29004KT 10SM CLR 22/15 A3004 RMK AO2
KMOX 152355Z AUTO 29006KT 10SM CLR 22/16 A3004 RMK AO2
KMOX 152335Z AUTO 29009KT 10SM CLR 23/14 A3004 RMK AO2